Time;durP1;ratioP1;P1;durP2;ratioP2;P2;SDS_P1;SDS_P2;PMS_P1;PMS_P2;Temp;Humidity;BMP_temperature;BMP_pressure;BME280_temperature;BME280_humidity;BME280_pressure;Samples;Min_cycle;Max_cycle;Signal;HPM_P1;HPM_P2
2023/10/25 05:19:33;;;;;;;;;;;;;;;4.17;100.00;99819.02;1895816;76;20098;-66
2023/10/25 05:22:01;;;;;;;;;;;;;;;4.16;100.00;99819.06;1837075;77;20117;-67
2023/10/25 05:24:28;;;;;;;;;;;;;;;4.21;100.00;99810.73;1842105;77;20358;-68
2023/10/25 05:26:55;;;;;;;;;;;;;;;4.27;100.00;99804.09;1846893;77;20145;-68
2023/10/25 05:29:22;;;;;;;;;;;;;;;4.35;100.00;99811.96;1843642;77;20104;-69
2023/10/25 05:31:51;;;;;;;;;;;;;;;4.43;100.00;99803.09;1834487;77;20415;-67
2023/10/25 05:34:23;;;;;;;;;;;;;;;4.50;100.00;99808.44;1839843;77;20150;-68
2023/10/25 05:36:49;;;;;;;;;;;;;;;4.57;100.00;99796.57;1842619;77;20087;-71
2023/10/25 05:39:16;;;;;;;;;;;;;;;4.65;100.00;99810.04;1837398;76;20168;-68
2023/10/25 05:41:43;;;;;;;;;;;;;;;4.74;100.00;99804.16;1844816;77;20132;-69
2023/10/25 05:44:11;;;;;;;;;;;;;;;4.81;100.00;99800.44;1814935;77;20127;-70
2023/10/25 05:46:37;;;;;;;;;;;;;;;4.88;100.00;99803.20;1840928;77;20097;-67
2023/10/25 05:49:04;;;;;;;;;;;;;;;4.93;100.00;99795.68;1843311;76;20136;-68
2023/10/25 05:51:32;;;;;;;;;;;;;;;4.97;100.00;99802.86;1842055;77;20129;-68
2023/10/25 05:54:02;;;;;;;;;;;;;;;5.03;100.00;99793.61;1841544;76;20131;-72
2023/10/25 05:56:29;;;;;;;;;;;;;;;5.09;100.00;99805.00;1837471;77;20382;-73
2023/10/25 05:58:56;;;;;;;;;;;;;;;5.16;100.00;99802.58;1837801;77;20129;-70
2023/10/25 06:01:26;;;;;;;;;;;;;;;5.22;100.00;99792.00;1837600;77;20107;-72
2023/10/25 06:03:52;;;;;;;;;;;;;;;5.27;100.00;99795.25;1851996;76;20118;-71
2023/10/25 06:06:19;;;;;;;;;;;;;;;5.30;100.00;99788.68;1837706;77;20103;-74
2023/10/25 06:08:46;;;;;;;;;;;;;;;5.35;100.00;99782.05;1811780;78;20112;-71
2023/10/25 06:11:13;;;;;;;;;;;;;;;5.41;100.00;99786.14;1838057;77;20122;-68
2023/10/25 06:13:40;;;;;;;;;;;;;;;5.46;100.00;99785.52;1850107;77;20098;-67
2023/10/25 06:16:07;;;;;;;;;;;;;;;5.51;100.00;99781.02;1842691;77;20402;-67
2023/10/25 06:18:33;;;;;;;;;;;;;;;5.52;100.00;99778.37;1831635;77;20107;-71
2023/10/25 06:21:00;;;;;;;;;;;;;;;5.56;100.00;99777.80;1822407;78;20134;-70
2023/10/25 06:38:44;;;;;;;;;;;;;;;5.82;100.00;99759.49;1818057;78;20135;-69
2023/10/25 06:41:17;;;;;;;;;;;;;;;5.88;100.00;99766.16;1809763;78;20157;-68
2023/10/25 06:43:43;;;;;;;;;;;;;;;5.91;100.00;99757.02;1816611;78;20424;-71
2023/10/25 06:46:11;;;;;;;;;;;;;;;5.95;100.00;99749.08;1810418;78;20095;-71
2023/10/25 06:48:38;;;;;;;;;;;;;;;5.99;100.00;99742.88;1814058;78;20197;-72
2023/10/25 07:03:50;;;;;;;;;;;;;;;6.16;100.00;99736.98;1805912;78;20100;-65
2023/10/25 07:06:17;;;;;;;;;;;;;;;6.18;100.00;99735.62;1837851;78;20150;-66
2023/10/25 07:08:44;;;;;;;;;;;;;;;6.20;100.00;99735.10;1825219;78;20180;-74
2023/10/25 07:11:11;;;;;;;;;;;;;;;6.21;100.00;99725.15;1820652;78;20137;-68
2023/10/25 07:13:37;;;;;;;;;;;;;;;6.21;100.00;99734.20;1817316;78;20145;-70
2023/10/25 07:16:07;;;;;;;;;;;;;;;6.24;100.00;99728.90;1820152;78;20122;-71
2023/10/25 07:18:33;;;;;;;;;;;;;;;6.26;100.00;99732.25;1825574;77;20157;-74
2023/10/25 07:21:02;;;;;;;;;;;;;;;6.28;100.00;99732.58;1839329;77;20099;-70
2023/10/25 07:51:22;;;;;;;;;;;;;;;6.59;100.00;99697.59;1747434;81;20394;-71
2023/10/25 07:53:49;;;;;;;;;;;;;;;6.59;100.00;99704.90;1768073;80;20104;-70
2023/10/25 08:06:27;;;;;;;;;;;;;;;6.65;100.00;99681.34;1771326;80;20113;-69
2023/10/25 08:08:54;;;;;;;;;;;;;;;6.67;100.00;99686.45;1766849;80;20432;-70
2023/10/25 08:11:20;;;;;;;;;;;;;;;6.66;100.00;99685.61;1770203;80;20125;-70
2023/10/25 08:13:47;;;;;;;;;;;;;;;6.68;100.00;99692.84;1796280;80;20103;-69
2023/10/25 08:16:13;;;;;;;;;;;;;;;6.68;100.00;99679.91;1783845;80;20141;-65
2023/10/25 08:18:40;;;;;;;;;;;;;;;6.71;100.00;99674.21;1772954;80;20375;-70
2023/10/25 08:21:13;;;;;;;;;;;;;;;6.71;100.00;99672.47;1747726;80;20151;-67
2023/10/25 08:23:40;;;;;;;;;;;;;;;6.70;100.00;99674.66;1759193;81;20177;-69
2023/10/25 08:26:07;;;;;;;;;;;;;;;6.69;100.00;99673.83;1757293;81;20138;-67
2023/10/25 08:28:34;;;;;;;;;;;;;;;6.68;100.00;99672.15;1756693;81;20102;-68
2023/10/25 08:31:10;;;;;;;;;;;;;;;6.66;100.00;99672.67;1746471;81;20138;-70
2023/10/25 08:33:39;;;;;;;;;;;;;;;6.65;100.00;99672.74;1751148;81;20133;-70
2023/10/25 08:36:06;;;;;;;;;;;;;;;6.65;100.00;99669.70;1771434;81;20177;-68
2023/10/25 08:38:34;;;;;;;;;;;;;;;6.68;100.00;99676.03;1746480;81;20144;-70
2023/10/25 12:39:57;;;;;;;;;;;;;;;6.62;100.00;99205.49;1782710;79;20150;-66
2023/10/25 12:42:24;;;;;;;;;;;;;;;6.61;100.00;99200.40;1782421;79;20159;-64
2023/10/25 12:44:50;;;;;;;;;;;;;;;6.61;100.00;99219.80;1782020;79;20105;-64
2023/10/25 12:47:17;;;;;;;;;;;;;;;6.58;100.00;99209.61;1771847;81;20108;-69
2023/10/25 12:49:44;;;;;;;;;;;;;;;6.56;100.00;99190.75;1776153;80;20152;-67
2023/10/25 12:52:10;;;;;;;;;;;;;;;6.57;100.00;99192.42;1766145;80;20167;-66
2023/10/25 12:54:37;;;;;;;;;;;;;;;6.55;100.00;99186.03;1776817;80;20097;-70
2023/10/25 12:57:05;;;;;;;;;;;;;;;6.55;100.00;99184.74;1754403;81;20103;-70
2023/10/25 12:59:31;;;;;;;;;;;;;;;6.55;100.00;99191.67;1769930;79;20101;-64
2023/10/25 13:06:57;;;;;;;;;;;;;;;6.57;100.00;99188.09;1793445;79;20381;-67
2023/10/25 13:09:24;;;;;;;;;;;;;;;6.56;100.00;99181.70;1799191;79;20390;-68
2023/10/25 13:11:52;;;;;;;;;;;;;;;6.56;100.00;99179.95;1791262;78;20154;-64
2023/10/25 13:14:19;;;;;;;;;;;;;;;6.56;100.00;99181.70;1787786;80;20131;-66
2023/10/25 13:16:45;;;;;;;;;;;;;;;6.55;100.00;99171.81;1789252;79;20147;-66
2023/10/25 13:19:12;;;;;;;;;;;;;;;6.56;100.00;99167.47;1792918;79;20112;-65
2023/10/25 13:21:41;;;;;;;;;;;;;;;6.57;100.00;99173.86;1778068;80;20095;-66
2023/10/25 13:24:12;;;;;;;;;;;;;;;6.58;100.00;99166.48;1777762;80;20123;-64
2023/10/25 13:26:38;;;;;;;;;;;;;;;6.60;100.00;99153.00;1764050;80;20224;-68
2023/10/25 13:29:05;;;;;;;;;;;;;;;6.61;100.00;99142.20;1776114;80;20348;-66
2023/10/25 13:31:31;;;;;;;;;;;;;;;6.61;100.00;99150.80;1775394;80;20136;-65
2023/10/25 13:49:02;;;;;;;;;;;;;;;6.59;100.00;99125.92;1765020;80;20096;-65
2023/10/25 13:51:28;;;;;;;;;;;;;;;6.58;100.00;99105.69;1774747;80;20151;-65
2023/10/25 13:53:55;;;;;;;;;;;;;;;6.59;100.00;99111.24;1785674;80;20151;-67
2023/10/25 13:56:22;;;;;;;;;;;;;;;6.58;100.00;99111.33;1777386;80;20173;-64
2023/10/25 13:58:48;;;;;;;;;;;;;;;6.58;100.00;99100.98;1767066;80;20106;-67
